createdAt,value
2015-07-08T00:00:07.833Z,21.6
2015-07-08T00:00:26.272Z,21.6
2015-07-08T00:00:44.725Z,21.6
2015-07-08T00:01:03.194Z,21.6
2015-07-08T00:01:21.759Z,21.6
2015-07-08T00:01:40.259Z,21.6
2015-07-08T00:01:58.681Z,21.6
2015-07-08T00:02:17.136Z,21.6
2015-07-08T00:02:35.526Z,21.7
2015-07-08T00:02:54.042Z,21.7
2015-07-08T00:03:12.464Z,21.7
2015-07-08T00:03:31.152Z,21.7
2015-07-08T00:03:49.543Z,21.7
2015-07-08T00:04:08.012Z,21.7
2015-07-08T00:04:26.577Z,21.7
2015-07-08T00:04:44.952Z,21.6
2015-07-08T00:05:03.358Z,21.7
2015-07-08T00:05:21.750Z,21.7
2015-07-08T00:05:40.156Z,21.7
2015-07-08T00:05:58.531Z,21.6
2015-07-08T00:06:16.922Z,21.6
2015-07-08T00:06:35.440Z,21.6
2015-07-08T00:06:53.893Z,21.5
2015-07-08T00:07:12.471Z,21.5
2015-07-08T00:07:30.911Z,21.4
2015-07-08T00:07:49.302Z,21.4
2015-07-08T00:08:07.911Z,21.4
2015-07-08T00:08:26.351Z,21.4
2015-07-08T00:08:44.195Z,21.4
2015-07-08T00:09:02.710Z,21.2
2015-07-08T00:09:21.102Z,21
2015-07-08T00:09:39.477Z,20.8
2015-07-08T00:09:57.946Z,20.6
2015-07-08T00:10:16.680Z,20.4
2015-07-08T00:10:35.260Z,20.3
2015-07-08T00:10:53.979Z,20.2
2015-07-08T00:11:12.463Z,20.2
2015-07-08T00:11:30.841Z,20.2
2015-07-08T00:11:49.247Z,20.1
2015-07-08T00:12:07.607Z,20.1
2015-07-08T00:12:26.156Z,20.1
2015-07-08T00:12:44.593Z,20.1
2015-07-08T00:13:03.312Z,20.1
2015-07-08T00:13:21.687Z,20.1
2015-07-08T00:13:40.251Z,20.1
2015-07-08T00:13:58.642Z,20.1
2015-07-08T00:14:17.111Z,20.1
2015-07-08T00:14:35.566Z,20.2
2015-07-08T00:14:53.988Z,20.1
2015-07-08T00:15:12.472Z,20.1
2015-07-08T00:15:31.019Z,20.1
2015-07-08T00:15:49.459Z,20.2
2015-07-08T00:16:07.927Z,20.1
2015-07-08T00:16:26.334Z,20.2
2015-07-08T00:16:44.726Z,20.2
2015-07-08T00:17:03.226Z,20.2
2015-07-08T00:17:21.711Z,20.3
2015-07-08T00:17:40.211Z,20.3
2015-07-08T00:17:58.838Z,20.3
2015-07-08T00:18:17.213Z,20.4
2015-07-08T00:18:35.744Z,20.3
2015-07-08T00:18:54.183Z,20.3
2015-07-08T00:19:12.730Z,20.3
2015-07-08T00:19:31.355Z,20.3
2015-07-08T00:19:49.809Z,20.3
2015-07-08T00:20:08.341Z,20.3
2015-07-08T00:20:26.809Z,20.4
2015-07-08T00:20:45.203Z,20.4
2015-07-08T00:21:03.672Z,20.4
2015-07-08T00:21:22.203Z,20.4
2015-07-08T00:21:40.687Z,20.3
2015-07-08T00:21:59.314Z,20.3
2015-07-08T00:22:17.721Z,20.4
2015-07-08T00:22:36.111Z,20.3
2015-07-08T00:22:54.581Z,20.4
2015-07-08T00:23:12.956Z,20.4
2015-07-08T00:23:31.472Z,20.4
2015-07-08T00:23:49.896Z,20.5
2015-07-08T00:24:08.334Z,20.5
2015-07-08T00:24:27.037Z,20.5
2015-07-08T00:24:45.428Z,20.4
2015-07-08T00:25:04.007Z,20.4
2015-07-08T00:25:22.522Z,20.5
2015-07-08T00:25:40.897Z,20.5
2015-07-08T00:25:59.400Z,20.5
2015-07-08T00:26:17.838Z,20.6
2015-07-08T00:26:36.322Z,20.6
2015-07-08T00:26:54.714Z,20.5
2015-07-08T00:27:13.183Z,20.5
2015-07-08T00:27:31.730Z,20.5
2015-07-08T00:27:50.183Z,20.4
2015-07-08T00:28:08.669Z,20.4
2015-07-08T00:28:27.200Z,20.4
2015-07-08T00:28:45.560Z,20.4
2015-07-08T00:29:04.046Z,20.5
2015-07-08T00:29:22.484Z,20.5
2015-07-08T00:29:40.999Z,20.5
2015-07-08T00:29:59.486Z,20.5
2015-07-08T00:30:17.892Z,20.6
2015-07-08T00:30:36.314Z,20.6
2015-07-08T00:30:54.691Z,20.6
2015-07-08T00:31:13.222Z,20.6
2015-07-08T00:31:31.659Z,20.5
2015-07-08T00:31:50.144Z,20.5
2015-07-08T00:32:08.536Z,20.6
2015-07-08T00:32:27.005Z,20.6
2015-07-08T00:32:45.536Z,20.6
2015-07-08T00:33:04.023Z,20.7
2015-07-08T00:33:22.413Z,20.6
2015-07-08T00:33:40.898Z,20.6
2015-07-08T00:33:59.337Z,20.6
2015-07-08T00:34:17.697Z,20.7
2015-07-08T00:34:36.134Z,20.5
2015-07-08T00:34:54.509Z,20.5
2015-07-08T00:35:12.933Z,20.3
2015-07-08T00:35:31.402Z,20.4
2015-07-08T00:35:49.855Z,20.4
2015-07-08T00:36:08.294Z,20.4
2015-07-08T00:36:26.669Z,20.4
2015-07-08T00:36:45.185Z,20.4
2015-07-08T00:37:03.591Z,20.4
2015-07-08T00:37:21.984Z,20.3
2015-07-08T00:37:40.531Z,20.4
2015-07-08T00:37:58.312Z,20.4
2015-07-08T00:38:16.939Z,20.5
2015-07-08T00:38:35.345Z,20.5
2015-07-08T00:38:53.752Z,20.6
2015-07-08T00:39:12.173Z,20.5
2015-07-08T00:39:30.550Z,20.5
2015-07-08T00:39:48.988Z,20.4
2015-07-08T00:40:07.363Z,20.4
2015-07-08T00:40:26.068Z,20.4
2015-07-08T00:40:44.537Z,20.5
2015-07-08T00:41:03.037Z,20.5
2015-07-08T00:41:21.459Z,20.5
2015-07-08T00:41:40.023Z,20.5
2015-07-08T00:41:58.414Z,20.5
2015-07-08T00:42:16.992Z,20.5
2015-07-08T00:42:35.619Z,20.5
2015-07-08T00:42:54.260Z,20.5
2015-07-08T00:43:12.806Z,20.4
2015-07-08T00:43:31.402Z,20.5
2015-07-08T00:43:49.762Z,20.5
2015-07-08T00:44:08.308Z,20.3
2015-07-08T00:44:26.701Z,20.3
2015-07-08T00:44:45.076Z,20.3
2015-07-08T00:45:03.764Z,20.2
2015-07-08T00:45:22.389Z,20.2
2015-07-08T00:45:40.797Z,20.2
2015-07-08T00:45:59.203Z,20.2
2015-07-08T00:46:17.609Z,20.2
2015-07-08T00:46:36.018Z,20.2
2015-07-08T00:46:54.424Z,20.1
2015-07-08T00:47:12.830Z,20.1
2015-07-08T00:47:31.363Z,20.2
2015-07-08T00:47:49.785Z,20.2
2015-07-08T00:48:08.254Z,20.2
2015-07-08T00:48:26.645Z,20.3
2015-07-08T00:48:45.131Z,20.3
2015-07-08T00:49:03.568Z,20.3
2015-07-08T00:49:22.178Z,20.3
2015-07-08T00:49:40.602Z,20.4
2015-07-08T00:49:59.149Z,20.5
2015-07-08T00:50:17.617Z,20.5
2015-07-08T00:50:36.087Z,20.5
2015-07-08T00:50:54.525Z,20.5
2015-07-08T00:51:12.931Z,20.5
2015-07-08T00:51:31.368Z,20.5
2015-07-08T00:51:49.824Z,20.5
2015-07-08T00:52:08.246Z,20.6
2015-07-08T00:52:26.621Z,20.7
2015-07-08T00:52:45.186Z,20.7
2015-07-08T00:53:03.889Z,20.8
2015-07-08T00:53:22.248Z,20.8
2015-07-08T00:53:40.765Z,20.8
2015-07-08T00:53:59.124Z,20.8
2015-07-08T00:54:17.593Z,20.8
2015-07-08T00:54:36.127Z,20.7
2015-07-08T00:54:54.502Z,20.7
2015-07-08T00:55:12.877Z,20.7
2015-07-08T00:55:31.284Z,20.6
2015-07-08T00:55:49.831Z,20.6
2015-07-08T00:56:08.253Z,20.7
2015-07-08T00:56:26.691Z,20.6
2015-07-08T00:56:45.146Z,20.6
2015-07-08T00:57:03.521Z,20.8
2015-07-08T00:57:21.912Z,20.8
2015-07-08T00:57:40.679Z,20.7
2015-07-08T00:57:59.070Z,20.7
2015-07-08T00:58:17.460Z,20.6
2015-07-08T00:58:35.914Z,20.6
2015-07-08T00:58:54.322Z,20.7
2015-07-08T00:59:12.775Z,20.7
2015-07-08T00:59:31.244Z,20.6
2015-07-08T00:59:49.715Z,20.7
2015-07-08T01:00:08.262Z,20.8
2015-07-08T01:00:26.778Z,20.8
2015-07-08T01:00:45.169Z,20.9
2015-07-08T01:01:03.952Z,21
2015-07-08T01:01:22.374Z,20.9
2015-07-08T01:01:40.827Z,20.9
2015-07-08T01:01:59.218Z,20.9
2015-07-08T01:02:17.750Z,20.9
2015-07-08T01:02:36.156Z,20.9
2015-07-08T01:02:54.640Z,20.8
2015-07-08T01:03:13.034Z,20.8
2015-07-08T01:03:31.471Z,20.7
2015-07-08T01:03:49.878Z,20.7
2015-07-08T01:04:08.239Z,20.7
2015-07-08T01:04:26.661Z,20.7
2015-07-08T01:04:45.098Z,20.8
2015-07-08T01:05:03.536Z,20.8
2015-07-08T01:05:21.929Z,20.7
2015-07-08T01:05:40.350Z,20.8
2015-07-08T01:05:58.944Z,20.9
2015-07-08T01:06:17.384Z,20.9
2015-07-08T01:06:35.868Z,20.9
2015-07-08T01:06:54.274Z,20.9
2015-07-08T01:07:12.634Z,20.9
2015-07-08T01:07:31.183Z,20.9
2015-07-08T01:07:49.651Z,20.9
2015-07-08T01:08:08.151Z,20.9
2015-07-08T01:08:26.575Z,20.9
2015-07-08T01:08:45.247Z,21
2015-07-08T01:09:03.700Z,21
2015-07-08T01:09:22.187Z,21
2015-07-08T01:09:40.702Z,20.9
2015-07-08T01:09:59.062Z,20.9
2015-07-08T01:10:17.751Z,21
2015-07-08T01:10:36.485Z,21
2015-07-08T01:10:54.876Z,21
2015-07-08T01:11:13.298Z,20.8
2015-07-08T01:11:31.783Z,20.9
2015-07-08T01:11:50.158Z,20.9
2015-07-08T01:12:08.643Z,20.9
2015-07-08T01:12:27.239Z,21
2015-07-08T01:12:45.911Z,20.9
2015-07-08T01:13:04.302Z,21
2015-07-08T01:13:22.663Z,20.8
2015-07-08T01:13:41.163Z,20.9
2015-07-08T01:13:59.538Z,20.9
2015-07-08T01:14:17.960Z,20.9
2015-07-08T01:14:36.383Z,20.9
2015-07-08T01:14:54.758Z,20.8
2015-07-08T01:15:13.196Z,20.8
2015-07-08T01:15:31.620Z,20.8
2015-07-08T01:15:50.027Z,20.9
2015-07-08T01:16:08.417Z,20.8
2015-07-08T01:16:26.903Z,20.8
2015-07-08T01:16:45.590Z,20.7
2015-07-08T01:17:04.043Z,20.8
2015-07-08T01:17:22.483Z,20.7
2015-07-08T01:17:40.905Z,20.8
2015-07-08T01:17:59.295Z,20.7
2015-07-08T01:18:17.873Z,20.6
2015-07-08T01:18:36.391Z,20.7
2015-07-08T01:18:54.750Z,20.7
2015-07-08T01:19:13.250Z,20.7
2015-07-08T01:19:31.659Z,20.6
2015-07-08T01:19:50.034Z,20.7
2015-07-08T01:20:08.643Z,20.7
2015-07-08T01:20:27.037Z,20.7
2015-07-08T01:20:45.474Z,20.8
2015-07-08T01:21:03.959Z,20.8
2015-07-08T01:21:22.552Z,20.7
2015-07-08T01:21:41.022Z,20.8
2015-07-08T01:21:59.522Z,20.9
2015-07-08T01:22:18.085Z,20.9
2015-07-08T01:22:36.649Z,21
2015-07-08T01:22:55.149Z,20.9
2015-07-08T01:23:13.571Z,20.8
2015-07-08T01:23:32.057Z,20.8
2015-07-08T01:23:50.542Z,20.9
2015-07-08T01:24:08.917Z,21
2015-07-08T01:24:27.323Z,21.1
2015-07-08T01:24:46.341Z,21.1
2015-07-08T01:25:04.903Z,21
2015-07-08T01:25:23.341Z,20.9
2015-07-08T01:25:41.874Z,21
2015-07-08T01:26:00.296Z,21
2015-07-08T01:26:18.827Z,21
2015-07-08T01:26:37.358Z,21
2015-07-08T01:26:55.766Z,21
2015-07-08T01:27:14.220Z,21
2015-07-08T01:27:32.641Z,20.8
2015-07-08T01:27:51.050Z,20.8
2015-07-08T01:28:09.597Z,20.9
2015-07-08T01:28:27.987Z,20.8
2015-07-08T01:28:46.378Z,20.8
2015-07-08T01:29:04.755Z,20.8
2015-07-08T01:29:23.177Z,20.9
2015-07-08T01:29:41.677Z,20.9
2015-07-08T01:30:00.335Z,21
2015-07-08T01:30:18.819Z,21.1
2015-07-08T01:30:37.210Z,21.1
2015-07-08T01:30:55.759Z,21.1
2015-07-08T01:31:14.149Z,21.1
2015-07-08T01:31:32.712Z,21
2015-07-08T01:31:51.245Z,21.1
2015-07-08T01:32:09.761Z,21
2015-07-08T01:32:28.214Z,21
2015-07-08T01:32:46.589Z,20.9
2015-07-08T01:33:05.013Z,20.9
2015-07-08T01:33:23.482Z,21
2015-07-08T01:33:41.872Z,21
2015-07-08T01:34:00.390Z,21
2015-07-08T01:34:18.984Z,20.9
2015-07-08T01:34:37.577Z,21
2015-07-08T01:34:56.001Z,21.1
2015-07-08T01:35:14.392Z,21.1
2015-07-08T01:35:32.907Z,21
2015-07-08T01:35:51.501Z,21
2015-07-08T01:36:09.878Z,21
2015-07-08T01:36:28.347Z,20.9
2015-07-08T01:36:46.831Z,20.9
2015-07-08T01:37:05.254Z,20.9
2015-07-08T01:37:23.801Z,20.9
2015-07-08T01:37:42.223Z,20.9
2015-07-08T01:38:00.804Z,20.9
2015-07-08T01:38:19.257Z,21
2015-07-08T01:38:37.804Z,21
2015-07-08T01:38:56.367Z,21.1
2015-07-08T01:39:14.884Z,21
2015-07-08T01:39:33.259Z,20.9
2015-07-08T01:39:51.759Z,21
2015-07-08T01:40:10.324Z,21
2015-07-08T01:40:28.792Z,21
2015-07-08T01:40:47.371Z,20.9
2015-07-08T01:41:05.951Z,21
2015-07-08T01:41:24.388Z,21
2015-07-08T01:41:42.888Z,21.1
2015-07-08T01:42:01.311Z,20.9
2015-07-08T01:42:19.827Z,20.8
2015-07-08T01:42:38.389Z,20.9
2015-07-08T01:42:56.952Z,21
2015-07-08T01:43:15.501Z,20.9
2015-07-08T01:43:34.047Z,20.8
2015-07-08T01:43:52.454Z,20.8
2015-07-08T01:44:10.863Z,20.7
2015-07-08T01:44:29.285Z,20.8
2015-07-08T01:44:47.660Z,20.8
2015-07-08T01:45:05.381Z,20.8
2015-07-08T01:45:23.740Z,20.8
2015-07-08T01:45:42.318Z,20.8
2015-07-08T01:46:01.052Z,20.7
2015-07-08T01:46:19.429Z,20.8
2015-07-08T01:46:37.883Z,20.8
2015-07-08T01:46:56.492Z,20.9
2015-07-08T01:47:14.978Z,20.9
2015-07-08T01:47:33.650Z,20.9
2015-07-08T01:47:52.025Z,20.8
2015-07-08T01:48:10.431Z,20.6
2015-07-08T01:48:28.917Z,20.7
2015-07-08T01:48:47.432Z,20.8
2015-07-08T01:49:05.307Z,20.9
2015-07-08T01:49:23.842Z,20.8
2015-07-08T01:49:42.357Z,20.7
2015-07-08T01:50:00.795Z,20.7
2015-07-08T01:50:19.310Z,20.8
2015-07-08T01:50:37.922Z,20.9
2015-07-08T01:50:56.328Z,20.9
2015-07-08T01:51:14.703Z,20.8
2015-07-08T01:51:32.454Z,20.9
2015-07-08T01:51:50.907Z,20.9
2015-07-08T01:52:09.423Z,21
2015-07-08T01:52:27.892Z,20.9
2015-07-08T01:52:46.363Z,21
2015-07-08T01:53:04.816Z,21
2015-07-08T01:53:23.410Z,20.9
2015-07-08T01:53:41.990Z,20.8
2015-07-08T01:54:00.522Z,20.9
2015-07-08T01:54:19.037Z,20.7
2015-07-08T01:54:37.490Z,20.9
2015-07-08T01:54:55.960Z,20.9
2015-07-08T01:55:14.351Z,21
2015-07-08T01:55:32.773Z,21
2015-07-08T01:55:51.401Z,21.1
2015-07-08T01:56:10.119Z,21
2015-07-08T01:56:28.776Z,21.1
2015-07-08T01:56:47.230Z,21.2
2015-07-08T01:57:05.870Z,21.2
2015-07-08T01:57:24.386Z,21.2
2015-07-08T01:57:42.795Z,21.1
2015-07-08T01:58:01.248Z,21.2
2015-07-08T01:58:19.670Z,21.2
2015-07-08T01:58:38.108Z,21
2015-07-08T01:58:56.547Z,21
2015-07-08T01:59:15.094Z,21
2015-07-08T01:59:33.469Z,21
2015-07-08T01:59:51.862Z,21.1
2015-07-08T02:00:10.330Z,21.1
2015-07-08T02:00:28.862Z,21.1
2015-07-08T02:00:47.332Z,21.1
2015-07-08T02:01:05.973Z,21.1
2015-07-08T02:01:24.426Z,21
2015-07-08T02:01:42.848Z,21
2015-07-08T02:02:01.319Z,21
2015-07-08T02:02:19.772Z,21
2015-07-08T02:02:38.131Z,21
2015-07-08T02:02:56.742Z,21
2015-07-08T02:03:15.242Z,21.1
2015-07-08T02:03:33.679Z,21.1
2015-07-08T02:03:52.291Z,21
2015-07-08T02:04:10.806Z,21.1
2015-07-08T02:04:29.197Z,20.9
2015-07-08T02:04:47.683Z,20.9
2015-07-08T02:05:06.277Z,21
2015-07-08T02:05:24.730Z,21
2015-07-08T02:05:43.168Z,21
2015-07-08T02:06:01.685Z,21.1
2015-07-08T02:06:20.170Z,21.2
2015-07-08T02:06:38.623Z,21.2
2015-07-08T02:06:57.297Z,21.2
2015-07-08T02:07:15.765Z,21.2
2015-07-08T02:07:34.140Z,21.2
2015-07-08T02:07:52.908Z,21.3
2015-07-08T02:08:11.392Z,21.3
2015-07-08T02:08:29.908Z,21.3
2015-07-08T02:08:48.533Z,21.3
2015-07-08T02:09:06.926Z,21.3
2015-07-08T02:09:25.504Z,21.3
2015-07-08T02:09:51.082Z,21.3
2015-07-08T02:10:09.459Z,21.3
2015-07-08T02:10:28.053Z,21.2
2015-07-08T02:10:46.615Z,21.2
2015-07-08T02:11:05.055Z,21.3
2015-07-08T02:11:23.601Z,21.3
2015-07-08T02:11:42.070Z,21.3
2015-07-08T02:12:00.541Z,21.2
2015-07-08T02:12:18.260Z,21.2
2015-07-08T02:12:36.713Z,21.3
2015-07-08T02:12:55.088Z,21.3
2015-07-08T02:13:13.527Z,21.3
2015-07-08T02:13:31.949Z,21.3
2015-07-08T02:13:50.340Z,21.1
2015-07-08T02:14:08.795Z,21.1
2015-07-08T02:14:27.451Z,21.2
2015-07-08T02:14:45.920Z,21.3
2015-07-08T02:15:04.359Z,21.3
2015-07-08T02:15:22.875Z,21.4
2015-07-08T02:15:41.281Z,21.4
2015-07-08T02:15:59.690Z,21.3
2015-07-08T02:16:18.221Z,21.4
2015-07-08T02:16:36.768Z,21.4
2015-07-08T02:16:55.127Z,21.5
2015-07-08T02:17:13.629Z,21.4
2015-07-08T02:17:32.035Z,21.4
2015-07-08T02:17:50.879Z,21.4
2015-07-08T02:18:09.255Z,21.4
2015-07-08T02:18:27.739Z,21.4
2015-07-08T02:18:46.224Z,21.4
2015-07-08T02:19:04.601Z,21.4
2015-07-08T02:19:23.148Z,21.3
2015-07-08T02:19:41.523Z,21.3
2015-07-08T02:20:00.023Z,21.3
2015-07-08T02:20:18.416Z,21.3
2015-07-08T02:20:36.885Z,21.3
2015-07-08T02:20:55.307Z,21.3
2015-07-08T02:21:13.683Z,21.3
2015-07-08T02:21:32.058Z,21.4
2015-07-08T02:21:50.683Z,21.4
2015-07-08T02:22:09.372Z,21.4
2015-07-08T02:22:27.888Z,21.3
2015-07-08T02:22:46.326Z,21.4
2015-07-08T02:23:04.109Z,21.4
2015-07-08T02:23:22.562Z,21.4
2015-07-08T02:23:40.968Z,21.3
2015-07-08T02:23:59.593Z,21.2
2015-07-08T02:24:18.064Z,21.2
2015-07-08T02:24:36.455Z,21.3
2015-07-08T02:24:54.861Z,21.3
2015-07-08T02:25:13.378Z,21.3
2015-07-08T02:25:31.925Z,21.2
2015-07-08T02:25:50.488Z,21.3
2015-07-08T02:26:09.037Z,21.2
2015-07-08T02:26:27.693Z,21.2
2015-07-08T02:26:46.380Z,21.2
2015-07-08T02:27:04.849Z,21.2
2015-07-08T02:27:22.617Z,21.2
2015-07-08T02:27:40.976Z,21.3
2015-07-08T02:27:59.367Z,21.3
2015-07-08T02:28:17.823Z,21.4
2015-07-08T02:28:36.339Z,21.3
2015-07-08T02:28:54.870Z,21.4
2015-07-08T02:29:13.339Z,21.4
2015-07-08T02:29:31.918Z,21.4
2015-07-08T02:29:50.371Z,21.3
2015-07-08T02:30:08.980Z,21.4
2015-07-08T02:30:27.374Z,21.3
2015-07-08T02:30:45.827Z,21.4
2015-07-08T02:31:04.358Z,21.4
2015-07-08T02:31:22.733Z,21.4
2015-07-08T02:31:41.203Z,21.4
2015-07-08T02:31:59.625Z,21.3
2015-07-08T02:32:18.094Z,21.3
2015-07-08T02:32:36.503Z,21.3
2015-07-08T02:32:54.925Z,21.3
2015-07-08T02:33:13.315Z,21.2
2015-07-08T02:33:31.816Z,21.2
2015-07-08T02:33:50.223Z,21.2
2015-07-08T02:34:08.598Z,21.3
2015-07-08T02:34:27.004Z,21.3
2015-07-08T02:34:45.428Z,21.3
2015-07-08T02:35:03.928Z,21.3
2015-07-08T02:35:22.334Z,21.2
2015-07-08T02:35:40.742Z,21.2
2015-07-08T02:35:59.320Z,21.2
2015-07-08T02:36:18.070Z,21.3
2015-07-08T02:36:36.338Z,21.3
2015-07-08T02:36:54.838Z,21.4
2015-07-08T02:37:13.197Z,21.4
2015-07-08T02:37:31.635Z,21.3
2015-07-08T02:37:50.059Z,21.3
2015-07-08T02:38:08.434Z,21.3
2015-07-08T02:38:26.996Z,21.2
2015-07-08T02:38:45.467Z,21.2
2015-07-08T02:39:04.061Z,21.2
2015-07-08T02:39:21.904Z,21.1
2015-07-08T02:39:40.344Z,21
2015-07-08T02:39:58.828Z,21
2015-07-08T02:40:17.219Z,21
2015-07-08T02:40:35.580Z,21
2015-07-08T02:40:54.065Z,21
2015-07-08T02:41:12.440Z,20.9
2015-07-08T02:41:30.815Z,20.9
2015-07-08T02:41:49.332Z,20.9
2015-07-08T02:42:07.832Z,21
2015-07-08T02:42:26.285Z,21
2015-07-08T02:42:44.725Z,21.1
2015-07-08T02:43:03.178Z,21.1
2015-07-08T02:43:21.616Z,21
2015-07-08T02:43:40.118Z,21
2015-07-08T02:43:58.633Z,21
2015-07-08T02:44:17.227Z,21
2015-07-08T02:44:35.836Z,21
2015-07-08T02:44:54.370Z,20.9
2015-07-08T02:45:12.885Z,21
2015-07-08T02:45:31.276Z,21.1
2015-07-08T02:45:49.809Z,21
2015-07-08T02:46:08.168Z,21.1
2015-07-08T02:46:35.684Z,21.2
2015-07-08T02:46:54.139Z,21.1
2015-07-08T02:47:12.530Z,21.2
2015-07-08T02:47:30.952Z,21.2
2015-07-08T02:47:49.329Z,21.2
2015-07-08T02:48:07.719Z,21.2
2015-07-08T02:48:26.141Z,21.1
2015-07-08T02:48:44.719Z,21.1
2015-07-08T02:49:03.298Z,21.2
2015-07-08T02:49:21.736Z,21.2
2015-07-08T02:49:40.158Z,21.2
2015-07-08T02:49:58.583Z,21.2
2015-07-08T02:50:16.973Z,21.3
2015-07-08T02:50:35.458Z,21.3
2015-07-08T02:50:53.866Z,21.2
2015-07-08T02:51:12.288Z,21.3
2015-07-08T02:51:30.663Z,21.2
2015-07-08T02:51:49.274Z,21.2
2015-07-08T02:52:07.790Z,21.2
2015-07-08T02:52:26.305Z,21.3
2015-07-08T02:52:44.102Z,21.3
2015-07-08T02:53:02.714Z,21.2
2015-07-08T02:53:21.198Z,21.2
2015-07-08T02:53:39.651Z,21.3
2015-07-08T02:53:58.043Z,21.3
2015-07-08T02:54:16.480Z,21.2
2015-07-08T02:54:34.933Z,21.2
2015-07-08T02:54:53.310Z,21.2
2015-07-08T02:55:11.810Z,21.2
2015-07-08T02:55:30.420Z,21.2
2015-07-08T02:55:48.842Z,21.3
2015-07-08T02:56:07.250Z,21.2
2015-07-08T02:56:25.625Z,21.3
2015-07-08T02:56:44.031Z,21.3
2015-07-08T02:57:03.049Z,21.3
2015-07-08T02:57:21.611Z,21.2
2015-07-08T02:57:40.002Z,21.2
2015-07-08T02:57:58.599Z,21.2
2015-07-08T02:58:17.036Z,21.2
2015-07-08T02:58:35.521Z,21.2
2015-07-08T02:58:53.897Z,21.2
2015-07-08T02:59:12.428Z,21.2
2015-07-08T02:59:30.818Z,21.2
2015-07-08T02:59:49.225Z,21.2
2015-07-08T03:00:07.711Z,21.3
2015-07-08T03:00:26.211Z,21.2
2015-07-08T03:00:44.695Z,21.1
2015-07-08T03:01:03.135Z,21.1
2015-07-08T03:01:21.557Z,21.2
2015-07-08T03:01:40.197Z,21.2
2015-07-08T03:01:58.715Z,21.2
2015-07-08T03:02:17.106Z,21.1
2015-07-08T03:02:35.543Z,21.1
2015-07-08T03:02:53.981Z,21.1
2015-07-08T03:03:12.389Z,21
2015-07-08T03:03:30.842Z,21
2015-07-08T03:03:49.201Z,21
2015-07-08T03:04:07.563Z,21.1
2015-07-08T03:04:25.953Z,21.1
2015-07-08T03:04:43.672Z,21.1
2015-07-08T03:05:02.143Z,21.1
2015-07-08T03:05:20.799Z,21.2
2015-07-08T03:05:39.221Z,21.2
2015-07-08T03:05:57.627Z,21.1
2015-07-08T03:06:16.036Z,21.2
2015-07-08T03:06:34.504Z,21.2
2015-07-08T03:06:52.926Z,21.2
2015-07-08T03:07:11.475Z,21.2
2015-07-08T03:07:29.850Z,21.3
2015-07-08T03:07:48.319Z,21.1
2015-07-08T03:08:06.709Z,21.1
2015-07-08T03:08:25.415Z,21.1
2015-07-08T03:08:43.868Z,21.1
2015-07-08T03:09:02.258Z,21.2
2015-07-08T03:09:20.635Z,21.1
2015-07-08T03:09:39.182Z,21.1
2015-07-08T03:09:57.760Z,21.2
2015-07-08T03:10:16.182Z,21.2
2015-07-08T03:10:34.544Z,21.2
2015-07-08T03:10:52.934Z,21.2
2015-07-08T03:11:11.387Z,21.2
2015-07-08T03:11:29.780Z,21.2
2015-07-08T03:11:48.186Z,21.2
2015-07-08T03:12:06.592Z,21.2
2015-07-08T03:12:24.952Z,21.2
2015-07-08T03:12:43.438Z,21.3
2015-07-08T03:13:01.813Z,21.3
2015-07-08T03:13:20.204Z,21.3
2015-07-08T03:13:38.690Z,21.3
2015-07-08T03:13:57.128Z,21.4
2015-07-08T03:14:15.753Z,21.4
2015-07-08T03:14:34.130Z,21.3
2015-07-08T03:14:52.661Z,21.4
2015-07-08T03:15:11.020Z,21.4
2015-07-08T03:15:29.380Z,21.4
2015-07-08T03:15:47.804Z,21.4
2015-07-08T03:16:06.569Z,21.4
2015-07-08T03:16:25.163Z,21.4
2015-07-08T03:16:42.915Z,21.5
2015-07-08T03:17:01.462Z,21.5
2015-07-08T03:17:20.165Z,21.4
2015-07-08T03:17:38.558Z,21.3
2015-07-08T03:17:56.933Z,21.3
2015-07-08T03:18:15.542Z,21.3
2015-07-08T03:18:34.028Z,21.3
2015-07-08T03:18:52.481Z,21.3
2015-07-08T03:19:10.903Z,21.2
2015-07-08T03:19:29.138Z,21.2
2015-07-08T03:19:47.765Z,21.2
2015-07-08T03:20:06.483Z,21.2
2015-07-08T03:20:24.858Z,21.2
2015-07-08T03:20:43.266Z,21.2
2015-07-08T03:21:01.688Z,21.2
2015-07-08T03:21:20.141Z,21.2
2015-07-08T03:21:38.597Z,21.2
2015-07-08T03:21:57.050Z,21.2
2015-07-08T03:22:15.409Z,21.2
2015-07-08T03:22:33.784Z,21.2
2015-07-08T03:22:52.160Z,21.1
2015-07-08T03:23:10.801Z,21.2
2015-07-08T03:23:29.285Z,21.2
2015-07-08T03:23:47.710Z,21.2
2015-07-08T03:24:06.101Z,21.2
2015-07-08T03:24:24.507Z,21.2
2015-07-08T03:24:43.008Z,21.1
2015-07-08T03:25:01.383Z,21.1
2015-07-08T03:25:19.789Z,21.2
2015-07-08T03:25:38.230Z,21.1
2015-07-08T03:25:56.730Z,21.2
2015-07-08T03:26:15.089Z,21.2
2015-07-08T03:26:33.558Z,21.3
2015-07-08T03:26:52.091Z,21.2
2015-07-08T03:27:10.451Z,21.2
2015-07-08T03:27:28.857Z,21.2
2015-07-08T03:27:47.436Z,21.2
2015-07-08T03:28:05.811Z,21.2
2015-07-08T03:28:24.233Z,21.3
2015-07-08T03:28:42.813Z,21.3
2015-07-08T03:29:01.266Z,21.3
2015-07-08T03:29:19.688Z,21.3
2015-07-08T03:29:38.125Z,21.3
2015-07-08T03:29:56.549Z,21.4
2015-07-08T03:30:14.987Z,21.3
2015-07-08T03:30:33.377Z,21.3
2015-07-08T03:30:51.755Z,21.3
2015-07-08T03:31:10.115Z,21.3
2015-07-08T03:31:28.490Z,21.3
2015-07-08T03:31:46.866Z,21.3
2015-07-08T03:32:05.350Z,21.2
2015-07-08T03:32:23.788Z,21.2
2015-07-08T03:32:42.241Z,21.3
2015-07-08T03:33:00.650Z,21.3
2015-07-08T03:33:19.009Z,21.3
2015-07-08T03:33:37.588Z,21.2
2015-07-08T03:33:55.979Z,21.2
2015-07-08T03:34:14.354Z,21.1
2015-07-08T03:34:32.760Z,21.2
2015-07-08T03:34:51.292Z,21.2
2015-07-08T03:35:09.669Z,21.2
2015-07-08T03:35:28.091Z,21.2
2015-07-08T03:35:46.528Z,21.3
2015-07-08T03:36:04.983Z,21.3
2015-07-08T03:36:23.389Z,21.3
2015-07-08T03:36:41.796Z,21.2
2015-07-08T03:37:00.139Z,21.3
2015-07-08T03:37:18.689Z,21.2
2015-07-08T03:37:37.142Z,21.2
2015-07-08T03:37:55.502Z,21.2
2015-07-08T03:38:14.003Z,21.2
2015-07-08T03:38:32.597Z,21.3
2015-07-08T03:38:50.972Z,21.3
2015-07-08T03:39:09.503Z,21.3
2015-07-08T03:39:28.084Z,21.3
2015-07-08T03:39:46.834Z,21.2
2015-07-08T03:40:05.443Z,21.2
2015-07-08T03:40:23.866Z,21.2
2015-07-08T03:40:42.382Z,21.2
2015-07-08T03:41:00.835Z,21.2
2015-07-08T03:41:19.243Z,21.2
2015-07-08T03:41:37.665Z,21.3
2015-07-08T03:41:56.056Z,21.3
2015-07-08T03:42:14.509Z,21.3
2015-07-08T03:42:32.948Z,21.2
2015-07-08T03:42:51.355Z,21.2
2015-07-08T03:43:09.761Z,21.3
2015-07-08T03:43:28.325Z,21.2
2015-07-08T03:43:46.935Z,21.2
2015-07-08T03:44:05.325Z,21.2
2015-07-08T03:44:23.780Z,21.2
2015-07-08T03:44:42.234Z,21.2
2015-07-08T03:45:00.765Z,21.3
2015-07-08T03:45:19.157Z,21.3
2015-07-08T03:45:37.548Z,21.2
2015-07-08T03:45:56.064Z,21.2
2015-07-08T03:46:14.517Z,21.2
2015-07-08T03:46:33.034Z,21.2
2015-07-08T03:46:51.409Z,21.3
2015-07-08T03:47:09.800Z,21.2
2015-07-08T03:47:28.208Z,21.3
2015-07-08T03:47:46.630Z,21.3
2015-07-08T03:48:05.161Z,21.3
2015-07-08T03:48:23.632Z,21.3
2015-07-08T03:48:42.335Z,21.4
2015-07-08T03:49:00.820Z,21.3
2015-07-08T03:49:19.445Z,21.4
2015-07-08T03:49:37.822Z,21.4
2015-07-08T03:49:56.228Z,21.4
2015-07-08T03:50:14.619Z,21.4
2015-07-08T03:50:33.136Z,21.4
2015-07-08T03:50:51.574Z,21.4
2015-07-08T03:51:10.214Z,21.4
2015-07-08T03:51:28.701Z,21.4
2015-07-08T03:51:47.294Z,21.3
2015-07-08T03:52:05.794Z,21.3
2015-07-08T03:52:24.250Z,21.3
2015-07-08T03:52:42.781Z,21.4
2015-07-08T03:53:01.156Z,21.4
2015-07-08T03:53:19.546Z,21.3
2015-07-08T03:53:38.016Z,21.4
2015-07-08T03:53:56.391Z,21.4
2015-07-08T03:54:14.797Z,21.4
2015-07-08T03:54:33.206Z,21.4
2015-07-08T03:54:51.596Z,21.4
2015-07-08T03:55:10.034Z,21.4
2015-07-08T03:55:28.489Z,21.4
2015-07-08T03:55:46.973Z,21.3
2015-07-08T03:56:05.473Z,21.3
2015-07-08T03:56:24.005Z,21.3
2015-07-08T03:56:42.476Z,21.3
2015-07-08T03:57:00.523Z,21.4
2015-07-08T03:57:18.976Z,21.4
2015-07-08T03:57:37.510Z,21.3
2015-07-08T03:57:56.181Z,21.3
2015-07-08T03:58:14.666Z,21.3
2015-07-08T03:58:33.041Z,21.2
2015-07-08T03:58:51.492Z,21.3
2015-07-08T03:59:09.976Z,21.3
2015-07-08T03:59:28.539Z,21.3
2015-07-08T03:59:46.971Z,21.4
2015-07-08T04:00:05.424Z,21.4
2015-07-08T04:00:23.893Z,21.4
2015-07-08T04:00:42.471Z,21.4
2015-07-08T04:01:00.962Z,21.3
2015-07-08T04:01:19.384Z,21.2
2015-07-08T04:01:37.806Z,21.2
2015-07-08T04:01:56.238Z,21.2
2015-07-08T04:02:14.597Z,21.1
2015-07-08T04:02:33.081Z,21.2
2015-07-08T04:02:51.472Z,21.2
2015-07-08T04:03:09.883Z,21.3
2015-07-08T04:03:28.414Z,21.3
2015-07-08T04:03:46.836Z,21.3
2015-07-08T04:04:05.242Z,21.4
2015-07-08T04:04:23.617Z,21.4
2015-07-08T04:04:42.007Z,21.4
2015-07-08T04:05:00.445Z,21.4
2015-07-08T04:05:18.959Z,21.4
2015-07-08T04:05:37.600Z,21.3
2015-07-08T04:05:55.959Z,21.3
2015-07-08T04:06:14.568Z,21.3
2015-07-08T04:06:32.974Z,21.3
2015-07-08T04:06:51.536Z,21.4
2015-07-08T04:07:09.958Z,21.4
2015-07-08T04:07:28.458Z,21.4